createdAt,value
2022-11-30T00:01:24.920Z,98836.00
2022-11-30T00:03:57.298Z,98838.59
2022-11-30T00:06:26.034Z,98839.06
2022-11-30T00:08:57.986Z,98841.56
2022-11-30T00:11:28.595Z,98840.66
2022-11-30T00:13:56.428Z,98849.22
2022-11-30T00:16:24.270Z,98842.41
2022-11-30T00:18:51.964Z,98841.56
2022-11-30T00:21:19.720Z,98845.22
2022-11-30T00:23:48.190Z,98850.88
2022-11-30T00:26:18.979Z,98843.09
2022-11-30T00:28:47.706Z,98843.97
2022-11-30T00:31:18.316Z,98851.72
2022-11-30T00:33:45.887Z,98846.47
2022-11-30T00:36:19.715Z,98845.59
2022-11-30T00:38:48.468Z,98854.31
2022-11-30T00:41:17.093Z,98850.09
2022-11-30T00:43:45.255Z,98855.84
2022-11-30T00:46:13.237Z,98856.91
2022-11-30T00:48:41.771Z,98856.03
2022-11-30T00:51:11.429Z,98849.31
2022-11-30T00:53:40.035Z,98856.41
2022-11-30T00:56:08.961Z,98839.25
2022-11-30T00:58:36.156Z,98854.84
2022-11-30T01:01:03.724Z,98857.09
2022-11-30T01:03:31.064Z,98851.84
2022-11-30T01:06:10.945Z,98851.63
2022-11-30T01:08:38.847Z,98844.72
2022-11-30T01:11:27.550Z,98848.34
2022-11-30T01:13:57.251Z,98853.53
2022-11-30T01:16:29.201Z,98842.22
2022-11-30T01:18:57.208Z,98850.75
2022-11-30T01:21:28.670Z,98851.59
2022-11-30T01:23:56.370Z,98853.91
2022-11-30T01:26:24.366Z,98858.47
2022-11-30T01:28:54.353Z,98860.19
2022-11-30T01:31:24.813Z,98867.03
2022-11-30T01:33:55.198Z,98869.56
2022-11-30T01:36:26.490Z,98867.69
2022-11-30T01:38:57.122Z,98864.38
2022-11-30T01:41:31.924Z,98857.66
2022-11-30T01:44:26.227Z,98862.94
2022-11-30T01:47:01.231Z,98861.00
2022-11-30T01:49:51.527Z,98853.94
2022-11-30T01:52:23.341Z,98860.03
2022-11-30T01:55:26.738Z,98868.63
2022-11-30T01:58:05.395Z,98863.69
2022-11-30T02:00:32.977Z,98864.53
2022-11-30T02:03:25.072Z,98853.38
2022-11-30T02:05:52.435Z,98854.84
2022-11-30T02:08:20.466Z,98854.72
2022-11-30T02:10:55.413Z,98850.38
2022-11-30T02:14:08.416Z,98847.84
2022-11-30T02:17:15.014Z,98853.91
2022-11-30T02:20:19.691Z,98863.31
2022-11-30T02:22:53.112Z,98871.13
2022-11-30T02:25:52.557Z,98867.59
2022-11-30T02:29:08.204Z,98863.38
2022-11-30T02:31:54.455Z,98860.94
2022-11-30T02:34:27.865Z,98862.59
2022-11-30T02:36:58.393Z,98855.22
2022-11-30T02:39:25.852Z,98855.81
2022-11-30T02:41:53.513Z,98857.38
2022-11-30T02:44:23.096Z,98865.97
2022-11-30T02:47:10.899Z,98868.66
2022-11-30T02:49:48.860Z,98862.03
2022-11-30T02:52:19.874Z,98869.53
2022-11-30T02:54:47.425Z,98873.81
2022-11-30T02:57:15.218Z,98874.50
2022-11-30T02:59:42.763Z,98878.03
2022-11-30T03:02:10.188Z,98875.28
2022-11-30T03:04:37.418Z,98875.28
2022-11-30T03:07:05.011Z,98871.94
2022-11-30T03:09:32.201Z,98874.44
2022-11-30T03:11:59.662Z,98873.84
2022-11-30T03:14:26.879Z,98871.19
2022-11-30T03:16:54.346Z,98872.03
2022-11-30T03:19:21.505Z,98867.91
2022-11-30T03:21:49.137Z,98875.56
2022-11-30T03:24:16.345Z,98876.34
2022-11-30T03:26:44.157Z,98871.97
2022-11-30T03:29:11.299Z,98881.44
2022-11-30T03:31:38.744Z,98894.31
2022-11-30T03:34:05.931Z,98896.13
2022-11-30T03:36:33.524Z,98887.44
2022-11-30T03:39:00.768Z,98884.03
2022-11-30T03:41:28.229Z,98893.41
2022-11-30T03:43:56.242Z,98886.41
2022-11-30T03:46:23.828Z,98894.94
2022-11-30T03:48:50.969Z,98897.81
2022-11-30T03:51:18.700Z,98891.84
2022-11-30T03:53:46.021Z,98891.06
2022-11-30T03:56:14.516Z,98897.00
2022-11-30T03:58:42.309Z,98897.69
2022-11-30T04:01:17.053Z,98900.31
2022-11-30T04:03:44.552Z,98892.47
2022-11-30T04:06:13.308Z,98899.47
2022-11-30T04:08:41.334Z,98900.22
2022-11-30T04:11:09.838Z,98902.84
2022-11-30T04:13:39.384Z,98897.78
2022-11-30T04:16:07.865Z,98902.03
2022-11-30T04:18:37.212Z,98899.31
2022-11-30T04:21:06.735Z,98902.84
2022-11-30T04:23:39.708Z,98903.69
2022-11-30T04:26:12.298Z,98906.44
2022-11-30T04:28:40.151Z,98905.41
2022-11-30T04:31:07.769Z,98897.56
2022-11-30T04:33:35.268Z,98900.16
2022-11-30T04:36:07.391Z,98899.13
2022-11-30T04:38:36.581Z,98906.22
2022-11-30T04:41:09.013Z,98913.81
2022-11-30T04:43:36.709Z,98902.84
2022-11-30T04:46:06.098Z,98918.00
2022-11-30T04:48:33.942Z,98912.31
2022-11-30T04:51:07.901Z,98922.00
2022-11-30T04:53:38.033Z,98918.50
2022-11-30T04:56:11.139Z,98913.41
2022-11-30T04:58:39.200Z,98913.47
2022-11-30T05:01:07.810Z,98920.28
2022-11-30T05:03:35.262Z,98915.91
2022-11-30T05:06:03.878Z,98913.31
2022-11-30T05:08:31.201Z,98918.28
2022-11-30T05:10:58.988Z,98916.50
2022-11-30T05:13:26.928Z,98924.00
2022-11-30T05:15:54.915Z,98909.50
2022-11-30T05:18:22.623Z,98920.78
2022-11-30T05:20:52.943Z,98924.31
2022-11-30T05:23:21.274Z,98934.03
2022-11-30T05:25:49.298Z,98937.38
2022-11-30T05:28:16.695Z,98939.06
2022-11-30T05:30:44.508Z,98939.06
2022-11-30T05:33:12.395Z,98945.09
2022-11-30T05:35:39.900Z,98943.25
2022-11-30T05:38:07.122Z,98941.44
2022-11-30T05:40:35.035Z,98940.63
2022-11-30T05:43:04.336Z,98946.50
2022-11-30T05:45:32.089Z,98947.97
2022-11-30T05:47:59.301Z,98937.63
2022-11-30T05:50:26.771Z,98939.25
2022-11-30T05:52:57.906Z,98943.56
2022-11-30T05:55:25.609Z,98943.75
2022-11-30T05:57:53.646Z,98951.56
2022-11-30T06:00:22.130Z,98944.06
2022-11-30T06:02:49.379Z,98947.69
2022-11-30T06:05:17.004Z,98950.41
2022-11-30T06:07:44.291Z,98943.38
2022-11-30T06:10:12.468Z,98951.50
2022-11-30T06:12:39.671Z,98954.97
2022-11-30T06:15:08.719Z,98949.84
2022-11-30T06:17:38.028Z,98954.19
2022-11-30T06:20:07.919Z,98958.13
2022-11-30T06:22:35.328Z,98950.19
2022-11-30T06:25:02.897Z,98951.81
2022-11-30T06:27:32.993Z,98944.03
2022-11-30T06:30:00.520Z,98950.00
2022-11-30T06:32:27.868Z,98951.41
2022-11-30T06:34:55.402Z,98943.63
2022-11-30T06:37:22.548Z,98942.91
2022-11-30T06:40:05.900Z,98950.50
2022-11-30T06:42:35.275Z,98954.88
2022-11-30T06:45:04.106Z,98955.16
2022-11-30T06:47:31.453Z,98949.91
2022-11-30T06:49:58.934Z,98954.16
2022-11-30T06:52:26.146Z,98958.44
2022-11-30T06:54:53.596Z,98974.88
2022-11-30T06:57:21.158Z,98975.66
2022-11-30T06:59:48.572Z,98977.28
2022-11-30T07:02:18.481Z,98974.78
2022-11-30T07:04:47.366Z,98979.22
2022-11-30T07:07:14.802Z,98977.53
2022-11-30T07:09:42.414Z,98985.13
2022-11-30T07:12:09.683Z,98982.50
2022-11-30T07:14:37.264Z,98982.59
2022-11-30T07:17:04.882Z,98982.69
2022-11-30T07:19:35.901Z,98989.50
2022-11-30T07:22:03.448Z,98982.59
2022-11-30T07:24:49.534Z,98984.28
2022-11-30T07:27:16.867Z,98974.81
2022-11-30T07:29:44.522Z,98988.75
2022-11-30T07:32:11.751Z,98987.13
2022-11-30T07:34:39.298Z,98982.97
2022-11-30T07:37:06.666Z,98976.03
2022-11-30T07:39:34.157Z,98980.91
2022-11-30T07:42:02.027Z,98985.16
2022-11-30T07:44:29.482Z,98980.03
2022-11-30T07:46:56.808Z,98981.56
2022-11-30T07:49:24.261Z,98981.97
2022-11-30T07:51:51.359Z,98983.69
2022-11-30T07:54:19.116Z,98976.53
2022-11-30T07:56:46.276Z,98983.47
2022-11-30T07:59:13.771Z,98982.31
2022-11-30T08:01:40.992Z,98982.22
2022-11-30T08:04:08.630Z,98984.03
2022-11-30T08:06:35.823Z,98977.22
2022-11-30T08:09:04.544Z,98987.19
2022-11-30T08:11:35.463Z,98983.84
2022-11-30T08:14:04.582Z,98988.00
2022-11-30T08:16:38.258Z,98977.41
2022-11-30T08:19:06.123Z,98978.41
2022-11-30T08:21:33.446Z,98976.84
2022-11-30T08:24:01.228Z,98973.44
2022-11-30T08:26:33.251Z,98968.19
2022-11-30T08:29:02.171Z,98972.22
2022-11-30T08:31:34.037Z,98978.03
2022-11-30T08:34:09.779Z,98974.38
2022-11-30T08:36:38.544Z,98976.34
2022-11-30T08:39:09.398Z,98975.72
2022-11-30T08:41:36.996Z,98986.72
2022-11-30T08:44:05.036Z,98986.47
2022-11-30T08:49:24.429Z,98986.66
2022-11-30T08:54:46.093Z,98992.66
2022-11-30T08:57:17.601Z,98994.69
2022-11-30T08:59:46.068Z,98993.31
2022-11-30T09:02:17.986Z,98986.28
2022-11-30T09:04:49.474Z,99000.94
2022-11-30T09:07:17.742Z,98993.72
2022-11-30T09:09:45.464Z,98997.16
2022-11-30T09:12:12.714Z,98999.59
2022-11-30T09:14:40.233Z,98997.13
2022-11-30T09:17:07.403Z,98997.78
2022-11-30T09:19:34.824Z,98990.97
2022-11-30T09:22:02.058Z,98999.31
2022-11-30T09:24:29.658Z,99008.88
2022-11-30T09:26:57.561Z,98997.75
2022-11-30T09:29:25.118Z,98997.69
2022-11-30T09:31:52.331Z,99000.72
2022-11-30T09:34:20.020Z,98997.22
2022-11-30T09:36:47.211Z,98995.47
2022-11-30T09:39:14.686Z,98997.81
2022-11-30T09:42:21.118Z,98994.50
2022-11-30T09:45:03.128Z,99002.00
2022-11-30T09:47:53.225Z,98992.53
2022-11-30T09:50:29.415Z,98990.34
2022-11-30T09:53:07.122Z,98995.63
2022-11-30T09:55:42.107Z,99000.53
2022-11-30T09:58:46.907Z,98990.97
2022-11-30T10:01:20.259Z,98997.38
2022-11-30T10:03:48.291Z,98997.88
2022-11-30T10:06:34.714Z,98996.72
2022-11-30T10:10:15.953Z,98996.41
2022-11-30T10:12:50.897Z,99000.31
2022-11-30T10:15:33.586Z,98992.66
2022-11-30T10:18:31.058Z,98998.19
2022-11-30T10:21:25.719Z,98990.69
2022-11-30T10:24:19.293Z,99005.47
2022-11-30T10:26:55.495Z,99006.16
2022-11-30T10:29:26.325Z,98997.56
2022-11-30T10:31:59.288Z,98992.34
2022-11-30T10:34:35.969Z,98981.53
2022-11-30T10:37:37.531Z,98991.50
2022-11-30T10:40:25.377Z,98978.03
2022-11-30T10:43:12.336Z,98980.31
2022-11-30T10:45:48.832Z,98980.16
2022-11-30T10:48:46.994Z,98979.06
2022-11-30T10:51:15.094Z,98976.03
2022-11-30T10:53:42.254Z,98982.75
2022-11-30T10:56:12.543Z,98981.53
2022-11-30T10:59:00.009Z,98983.09
2022-11-30T11:01:38.231Z,98983.75
2022-11-30T11:04:17.034Z,98981.16
2022-11-30T11:07:11.301Z,98973.91
2022-11-30T11:09:50.431Z,98987.94
2022-11-30T11:12:31.046Z,98989.09
2022-11-30T11:15:26.672Z,98980.44
2022-11-30T11:18:21.578Z,98981.13
2022-11-30T11:21:04.132Z,98984.16
2022-11-30T11:23:39.499Z,98978.69
2022-11-30T11:26:20.021Z,98978.06
2022-11-30T11:28:51.381Z,98981.59
2022-11-30T11:31:44.458Z,98990.41
2022-11-30T11:34:34.945Z,98989.47
2022-11-30T11:37:17.223Z,98987.56
2022-11-30T11:40:02.554Z,98979.78
2022-11-30T11:42:37.145Z,98986.72
2022-11-30T11:45:06.544Z,98987.47
2022-11-30T11:47:45.102Z,98984.69
2022-11-30T11:50:12.547Z,98982.81
2022-11-30T11:52:40.008Z,98974.06
2022-11-30T11:55:17.983Z,98982.72
2022-11-30T11:58:02.822Z,98982.69
2022-11-30T12:00:31.516Z,98989.41
2022-11-30T12:03:29.930Z,98986.84
2022-11-30T12:06:05.577Z,98988.34
2022-11-30T12:08:49.207Z,98989.84
2022-11-30T12:11:27.725Z,98986.28
2022-11-30T12:13:55.023Z,98988.91
2022-11-30T12:17:20.067Z,98986.56
2022-11-30T12:20:05.016Z,98992.78
2022-11-30T12:23:21.919Z,98993.63
2022-11-30T12:26:26.949Z,98984.69
2022-11-30T12:29:23.347Z,98985.03
2022-11-30T12:32:13.627Z,98981.25
2022-11-30T12:34:56.129Z,98976.66
2022-11-30T12:37:35.624Z,98979.63
2022-11-30T12:40:51.746Z,98979.16
2022-11-30T12:43:39.904Z,98977.47
2022-11-30T12:46:56.387Z,98978.97
2022-11-30T12:49:59.100Z,98993.25
2022-11-30T12:52:54.221Z,98979.28
2022-11-30T12:55:40.260Z,98990.66
2022-11-30T12:58:58.878Z,98984.63
2022-11-30T13:01:34.444Z,98987.81
2022-11-30T13:04:19.484Z,98979.59
2022-11-30T13:07:08.803Z,98981.53
2022-11-30T13:09:56.504Z,98976.03
2022-11-30T13:12:37.139Z,98979.63
2022-11-30T13:15:22.871Z,98970.75
2022-11-30T13:17:52.231Z,98976.00
2022-11-30T13:20:45.333Z,98972.78
2022-11-30T13:23:55.634Z,98976.94
2022-11-30T13:26:37.599Z,98971.66
2022-11-30T13:29:39.283Z,98976.22
2022-11-30T13:32:48.653Z,98967.63
2022-11-30T13:35:29.093Z,98969.41
2022-11-30T13:38:36.282Z,98975.91
2022-11-30T13:41:08.483Z,98978.38
2022-11-30T13:43:45.651Z,98970.84
2022-11-30T13:46:24.120Z,98978.41
2022-11-30T13:49:18.422Z,98981.28
2022-11-30T13:51:45.791Z,98984.91
2022-11-30T13:54:54.544Z,98984.03
2022-11-30T13:57:24.856Z,98979.47
2022-11-30T13:59:54.012Z,98979.19
2022-11-30T14:02:33.775Z,98977.47
2022-11-30T14:05:16.792Z,98975.91
2022-11-30T14:07:52.999Z,98980.50
2022-11-30T14:10:33.805Z,98981.72
2022-11-30T14:13:07.391Z,98988.13
2022-11-30T14:15:41.867Z,98985.72
2022-11-30T14:18:09.084Z,98985.56
2022-11-30T14:20:53.705Z,98988.03
2022-11-30T14:24:00.671Z,98992.41
2022-11-30T14:26:41.963Z,98979.25
2022-11-30T14:29:09.029Z,98987.34
2022-11-30T14:31:48.575Z,98995.47
2022-11-30T14:34:36.359Z,98993.31
2022-11-30T14:37:16.203Z,98990.81
2022-11-30T14:39:46.904Z,98986.31
2022-11-30T14:42:27.779Z,98986.03
2022-11-30T14:44:56.501Z,98979.47
2022-11-30T14:47:30.038Z,98989.94
2022-11-30T14:50:02.335Z,98982.94
2022-11-30T14:52:44.123Z,98983.09
2022-11-30T14:55:18.952Z,98984.09
2022-11-30T14:58:32.638Z,98990.00
2022-11-30T15:01:03.808Z,98985.84
2022-11-30T15:03:40.436Z,98994.06
2022-11-30T15:06:08.603Z,98994.22
2022-11-30T15:08:44.328Z,98993.50
2022-11-30T15:11:15.164Z,99000.25
2022-11-30T15:13:49.126Z,99002.06
2022-11-30T15:16:25.383Z,99007.03
2022-11-30T15:18:56.312Z,99000.88
2022-11-30T15:21:26.556Z,99003.25
2022-11-30T15:24:00.753Z,99011.50
2022-11-30T15:26:49.786Z,99020.53
2022-11-30T15:29:40.717Z,99002.56
2022-11-30T15:32:17.614Z,99010.94
2022-11-30T15:34:54.871Z,99012.69
2022-11-30T15:37:43.615Z,99017.84
2022-11-30T15:40:26.815Z,99016.97
2022-11-30T15:42:54.121Z,99023.69
2022-11-30T15:45:36.253Z,99021.97
2022-11-30T15:48:35.826Z,99028.81
2022-11-30T15:51:03.782Z,99025.34
2022-11-30T15:53:35.556Z,99026.94
2022-11-30T15:56:09.097Z,99036.16
2022-11-30T15:58:47.658Z,99046.56
2022-11-30T16:01:24.807Z,99049.06
2022-11-30T16:04:05.873Z,99053.66
2022-11-30T16:06:51.552Z,99050.25
2022-11-30T16:09:32.277Z,99046.00
2022-11-30T16:12:02.535Z,99051.03
2022-11-30T16:14:29.810Z,99056.44
2022-11-30T16:16:57.780Z,99046.09
2022-11-30T16:19:25.133Z,99057.16
2022-11-30T16:21:52.759Z,99046.66
2022-11-30T16:24:20.431Z,99053.47
2022-11-30T16:26:51.880Z,99054.97
2022-11-30T16:29:20.305Z,99055.09
2022-11-30T16:31:47.935Z,99054.22
2022-11-30T16:34:15.092Z,99060.22
2022-11-30T16:36:42.542Z,99058.31
2022-11-30T16:39:12.824Z,99055.72
2022-11-30T16:41:40.439Z,99058.41
2022-11-30T16:44:14.304Z,99059.97
2022-11-30T16:46:42.126Z,99054.16
2022-11-30T16:49:09.395Z,99053.41
2022-11-30T16:51:37.475Z,99055.34
2022-11-30T16:54:05.139Z,99060.41
2022-11-30T16:56:33.335Z,99062.22
2022-11-30T16:59:00.609Z,99057.97
2022-11-30T17:01:43.847Z,99069.00
2022-11-30T17:04:22.965Z,99066.38
2022-11-30T17:06:57.220Z,99069.75
2022-11-30T17:09:29.954Z,99073.06
2022-11-30T17:11:57.538Z,99068.94
2022-11-30T17:14:24.710Z,99068.13
2022-11-30T17:16:52.305Z,99069.91
2022-11-30T17:19:19.808Z,99061.97
2022-11-30T17:21:48.435Z,99061.13
2022-11-30T17:24:15.983Z,99066.19
2022-11-30T17:26:43.772Z,99069.59
2022-11-30T17:29:10.949Z,99067.81
2022-11-30T17:31:38.454Z,99066.97
2022-11-30T17:34:08.705Z,99069.53
2022-11-30T17:36:36.285Z,99066.81
2022-11-30T17:39:08.847Z,99065.28
2022-11-30T17:41:36.362Z,99069.56
2022-11-30T17:44:03.754Z,99062.91
2022-11-30T17:46:31.366Z,99062.72
2022-11-30T17:48:58.709Z,99065.25
2022-11-30T17:51:26.332Z,99067.94
2022-11-30T17:53:53.565Z,99061.16
2022-11-30T17:56:21.076Z,99056.78
2022-11-30T17:58:49.381Z,99063.38
2022-11-30T18:01:20.632Z,99066.28
2022-11-30T18:03:48.398Z,99070.53
2022-11-30T18:06:16.907Z,99068.72
2022-11-30T18:08:44.529Z,99066.06
2022-11-30T18:11:17.346Z,99065.41
2022-11-30T18:13:44.841Z,99072.44
2022-11-30T18:16:19.259Z,99061.38
2022-11-30T18:18:48.470Z,99070.56
2022-11-30T18:21:20.589Z,99069.91
2022-11-30T18:23:49.148Z,99076.66
2022-11-30T18:26:23.010Z,99068.94
2022-11-30T18:28:58.063Z,99074.00
2022-11-30T18:31:27.941Z,99068.75
2022-11-30T18:33:58.563Z,99080.69
2022-11-30T18:36:26.711Z,99067.13
2022-11-30T18:38:54.320Z,99075.50
2022-11-30T18:41:22.320Z,99072.31
2022-11-30T18:43:49.601Z,99075.09
2022-11-30T18:46:17.137Z,99078.44
2022-11-30T18:48:47.933Z,99077.59
2022-11-30T18:51:34.378Z,99084.31
2022-11-30T18:54:07.701Z,99077.38
2022-11-30T18:56:38.261Z,99075.69
2022-11-30T18:59:14.800Z,99088.88
2022-11-30T19:01:42.710Z,99082.25
2022-11-30T19:04:11.861Z,99088.47
2022-11-30T19:06:42.143Z,99089.31
2022-11-30T19:09:13.836Z,99083.53
2022-11-30T19:11:42.834Z,99084.22
2022-11-30T19:14:14.583Z,99090.16
2022-11-30T19:16:43.014Z,99088.59
2022-11-30T19:19:14.548Z,99080.00
2022-11-30T19:21:48.028Z,99088.28
2022-11-30T19:24:16.737Z,99083.19
2022-11-30T19:26:44.240Z,99092.59
2022-11-30T19:29:12.409Z,99091.03
2022-11-30T19:31:40.284Z,99091.00
2022-11-30T19:34:12.619Z,99089.13
2022-11-30T19:36:41.881Z,99093.34
2022-11-30T19:39:10.955Z,99091.72
2022-11-30T19:41:39.313Z,99099.28
2022-11-30T19:44:06.580Z,99094.28
2022-11-30T19:46:34.922Z,99088.16
2022-11-30T19:49:02.694Z,99092.47
2022-11-30T19:51:31.950Z,99095.06
2022-11-30T19:53:59.887Z,99094.19
2022-11-30T19:56:32.313Z,99090.84
2022-11-30T19:59:04.679Z,99098.44
2022-11-30T20:01:34.161Z,99092.50
2022-11-30T20:04:01.480Z,99094.28
2022-11-30T20:06:36.095Z,99096.72
2022-11-30T20:09:07.202Z,99103.69
2022-11-30T20:11:35.376Z,99102.97
2022-11-30T20:14:03.897Z,99102.00
2022-11-30T20:16:31.629Z,99104.44
2022-11-30T20:19:01.744Z,99094.28
2022-11-30T20:21:36.192Z,99092.56
2022-11-30T20:24:07.797Z,99084.84
2022-11-30T20:26:42.987Z,99090.81
2022-11-30T20:29:16.597Z,99094.28
2022-11-30T20:31:47.587Z,99093.22
2022-11-30T20:34:15.865Z,99087.28
2022-11-30T20:36:43.769Z,99088.94
2022-11-30T20:39:12.069Z,99091.38
2022-11-30T20:41:39.824Z,99097.56
2022-11-30T20:44:07.270Z,99086.22
2022-11-30T20:46:36.158Z,99085.13
2022-11-30T20:49:13.501Z,99082.81
2022-11-30T20:51:41.237Z,99090.44
2022-11-30T20:54:08.590Z,99088.59
2022-11-30T20:56:38.184Z,99085.06
2022-11-30T20:59:19.620Z,99094.09
2022-11-30T21:01:47.427Z,99089.47
2022-11-30T21:04:14.663Z,99089.38
2022-11-30T21:06:45.574Z,99087.50
2022-11-30T21:09:15.120Z,99083.09
2022-11-30T21:11:43.714Z,99087.44
2022-11-30T21:14:11.271Z,99088.28
2022-11-30T21:16:39.805Z,99087.50
2022-11-30T21:19:07.264Z,99087.31
2022-11-30T21:21:35.829Z,99088.47
2022-11-30T21:24:07.741Z,99080.84
2022-11-30T21:26:42.497Z,99081.59
2022-11-30T21:29:18.248Z,99087.47
2022-11-30T21:31:46.285Z,99078.97
2022-11-30T21:34:14.103Z,99076.47
2022-11-30T21:36:42.643Z,99078.19
2022-11-30T21:39:14.219Z,99079.94
2022-11-30T21:41:42.258Z,99076.47
2022-11-30T21:44:16.101Z,99080.69
2022-11-30T21:46:46.543Z,99083.63
2022-11-30T21:49:15.916Z,99082.94
2022-11-30T21:51:44.108Z,99080.31
2022-11-30T21:54:13.352Z,99083.97
2022-11-30T21:56:43.777Z,99075.34
2022-11-30T21:59:14.464Z,99083.72
2022-11-30T22:01:43.998Z,99082.03
2022-11-30T22:04:14.149Z,99077.91
2022-11-30T22:06:43.378Z,99071.63
2022-11-30T22:09:17.537Z,99074.19
2022-11-30T22:11:45.748Z,99077.81
2022-11-30T22:14:16.867Z,99078.69
2022-11-30T22:16:45.332Z,99081.22
2022-11-30T22:19:15.796Z,99087.44
2022-11-30T22:21:49.405Z,99089.25
2022-11-30T22:24:17.577Z,99089.66
2022-11-30T22:26:46.737Z,99084.75
2022-11-30T22:29:21.263Z,99100.22
2022-11-30T22:31:53.414Z,99089.31
2022-11-30T22:34:21.449Z,99091.81
2022-11-30T22:36:48.998Z,99101.28
2022-11-30T22:39:21.816Z,99089.31
2022-11-30T22:41:55.150Z,99087.69
2022-11-30T22:44:25.747Z,99085.19
2022-11-30T22:46:59.846Z,99090.94
2022-11-30T22:49:27.155Z,99095.13
2022-11-30T22:51:54.600Z,99091.63
2022-11-30T22:54:21.909Z,99086.56
2022-11-30T22:56:49.423Z,99086.88
2022-11-30T22:59:16.792Z,99092.75
2022-11-30T23:01:49.788Z,99085.97
2022-11-30T23:04:20.191Z,99075.78
2022-11-30T23:06:49.980Z,99071.31
2022-11-30T23:09:22.939Z,99074.66
2022-11-30T23:11:52.112Z,99070.22
2022-11-30T23:14:19.937Z,99070.16
2022-11-30T23:16:48.064Z,99072.69
2022-11-30T23:19:16.103Z,99071.78
2022-11-30T23:21:45.448Z,99068.97
2022-11-30T23:24:18.034Z,99063.72
2022-11-30T23:26:46.107Z,99068.66
2022-11-30T23:29:16.095Z,99065.84
2022-11-30T23:31:45.527Z,99058.25
2022-11-30T23:34:20.027Z,99058.13
2022-11-30T23:36:49.216Z,99059.84
2022-11-30T23:39:19.722Z,99056.44
2022-11-30T23:41:47.687Z,99055.44
2022-11-30T23:44:15.240Z,99045.91
2022-11-30T23:46:42.827Z,99055.25
2022-11-30T23:49:13.536Z,99055.19
2022-11-30T23:51:42.247Z,99050.00
2022-11-30T23:54:09.504Z,99051.91
2022-11-30T23:56:37.037Z,99045.81
2022-11-30T23:59:04.206Z,99039.16
